sensor_id;sensor_type;location;lat;lon;timestamp;P1;durP1;ratioP1;P2;durP2;ratioP2
22579;SDS011;11456;47.030;15.396;2023-11-21T00:01:06;25.70;;;13.02;;
22579;SDS011;11456;47.030;15.396;2023-11-21T00:03:35;24.50;;;12.90;;
22579;SDS011;11456;47.030;15.396;2023-11-21T00:06:02;27.40;;;13.77;;
22579;SDS011;11456;47.030;15.396;2023-11-21T00:08:29;25.00;;;13.05;;
22579;SDS011;11456;47.030;15.396;2023-11-21T00:10:56;26.92;;;12.80;;
22579;SDS011;11456;47.030;15.396;2023-11-21T00:13:23;21.65;;;12.70;;
22579;SDS011;11456;47.030;15.396;2023-11-21T00:15:50;25.20;;;13.20;;
22579;SDS011;11456;47.030;15.396;2023-11-21T00:18:17;27.50;;;12.05;;
22579;SDS011;11456;47.030;15.396;2023-11-21T00:20:44;24.50;;;12.15;;
22579;SDS011;11456;47.030;15.396;2023-11-21T00:23:11;26.27;;;13.10;;
22579;SDS011;11456;47.030;15.396;2023-11-21T00:25:37;27.00;;;13.52;;
22579;SDS011;11456;47.030;15.396;2023-11-21T00:28:04;24.05;;;12.55;;
22579;SDS011;11456;47.030;15.396;2023-11-21T00:30:32;35.53;;;13.68;;
22579;SDS011;11456;47.030;15.396;2023-11-21T00:32:59;28.42;;;13.05;;
22579;SDS011;11456;47.030;15.396;2023-11-21T00:35:26;24.65;;;13.52;;
22579;SDS011;11456;47.030;15.396;2023-11-21T00:37:53;22.50;;;12.63;;
22579;SDS011;11456;47.030;15.396;2023-11-21T00:40:20;23.63;;;12.45;;
22579;SDS011;11456;47.030;15.396;2023-11-21T00:42:47;20.83;;;12.48;;
22579;SDS011;11456;47.030;15.396;2023-11-21T00:45:14;23.67;;;12.32;;
22579;SDS011;11456;47.030;15.396;2023-11-21T00:47:41;26.25;;;12.52;;
22579;SDS011;11456;47.030;15.396;2023-11-21T00:50:09;20.58;;;12.18;;
22579;SDS011;11456;47.030;15.396;2023-11-21T00:52:36;25.00;;;12.40;;
22579;SDS011;11456;47.030;15.396;2023-11-21T00:55:04;21.33;;;12.75;;
22579;SDS011;11456;47.030;15.396;2023-11-21T00:57:34;29.65;;;13.43;;
22579;SDS011;11456;47.030;15.396;2023-11-21T01:00:02;30.35;;;14.50;;
22579;SDS011;11456;47.030;15.396;2023-11-21T01:02:34;31.48;;;14.73;;
22579;SDS011;11456;47.030;15.396;2023-11-21T01:05:02;23.88;;;14.07;;
22579;SDS011;11456;47.030;15.396;2023-11-21T01:07:30;31.80;;;15.75;;
22579;SDS011;11456;47.030;15.396;2023-11-21T01:09:56;31.50;;;16.08;;
22579;SDS011;11456;47.030;15.396;2023-11-21T01:12:23;25.73;;;13.88;;
22579;SDS011;11456;47.030;15.396;2023-11-21T01:14:51;33.97;;;13.63;;
22579;SDS011;11456;47.030;15.396;2023-11-21T01:17:18;29.80;;;13.75;;
22579;SDS011;11456;47.030;15.396;2023-11-21T01:19:45;26.02;;;14.25;;
22579;SDS011;11456;47.030;15.396;2023-11-21T01:22:12;34.63;;;14.98;;
22579;SDS011;11456;47.030;15.396;2023-11-21T01:24:38;32.95;;;16.38;;
22579;SDS011;11456;47.030;15.396;2023-11-21T01:27:05;29.98;;;16.98;;
22579;SDS011;11456;47.030;15.396;2023-11-21T01:29:32;33.95;;;16.73;;
22579;SDS011;11456;47.030;15.396;2023-11-21T01:31:58;32.10;;;15.55;;
22579;SDS011;11456;47.030;15.396;2023-11-21T01:34:25;30.15;;;15.35;;
22579;SDS011;11456;47.030;15.396;2023-11-21T01:36:52;33.78;;;16.17;;
22579;SDS011;11456;47.030;15.396;2023-11-21T01:39:19;35.47;;;17.00;;
22579;SDS011;11456;47.030;15.396;2023-11-21T01:41:50;27.60;;;15.68;;
22579;SDS011;11456;47.030;15.396;2023-11-21T01:44:18;30.17;;;16.25;;
22579;SDS011;11456;47.030;15.396;2023-11-21T01:46:46;31.00;;;15.70;;
22579;SDS011;11456;47.030;15.396;2023-11-21T01:49:14;27.25;;;14.52;;
22579;SDS011;11456;47.030;15.396;2023-11-21T01:51:42;27.67;;;14.10;;
22579;SDS011;11456;47.030;15.396;2023-11-21T01:54:12;24.95;;;13.55;;
22579;SDS011;11456;47.030;15.396;2023-11-21T01:56:46;25.60;;;14.25;;
22579;SDS011;11456;47.030;15.396;2023-11-21T01:59:21;27.02;;;13.50;;
22579;SDS011;11456;47.030;15.396;2023-11-21T02:01:48;27.95;;;14.63;;
22579;SDS011;11456;47.030;15.396;2023-11-21T02:04:17;30.13;;;13.80;;
22579;SDS011;11456;47.030;15.396;2023-11-21T02:06:44;24.98;;;12.98;;
22579;SDS011;11456;47.030;15.396;2023-11-21T02:09:11;22.98;;;12.63;;
22579;SDS011;11456;47.030;15.396;2023-11-21T02:11:41;28.35;;;13.43;;
22579;SDS011;11456;47.030;15.396;2023-11-21T02:14:08;23.77;;;12.98;;
22579;SDS011;11456;47.030;15.396;2023-11-21T02:16:36;21.30;;;12.63;;
22579;SDS011;11456;47.030;15.396;2023-11-21T02:19:03;25.13;;;13.15;;
22579;SDS011;11456;47.030;15.396;2023-11-21T02:21:35;23.15;;;12.77;;
22579;SDS011;11456;47.030;15.396;2023-11-21T02:24:07;26.38;;;14.35;;
22579;SDS011;11456;47.030;15.396;2023-11-21T02:26:34;27.33;;;13.82;;
22579;SDS011;11456;47.030;15.396;2023-11-21T02:29:01;26.52;;;12.95;;
22579;SDS011;11456;47.030;15.396;2023-11-21T02:31:31;27.63;;;14.43;;
22579;SDS011;11456;47.030;15.396;2023-11-21T02:34:00;26.33;;;13.80;;
22579;SDS011;11456;47.030;15.396;2023-11-21T02:36:26;26.10;;;14.25;;
22579;SDS011;11456;47.030;15.396;2023-11-21T02:38:53;23.70;;;13.18;;
22579;SDS011;11456;47.030;15.396;2023-11-21T02:41:19;26.20;;;13.35;;
22579;SDS011;11456;47.030;15.396;2023-11-21T02:43:46;25.15;;;12.38;;
22579;SDS011;11456;47.030;15.396;2023-11-21T02:46:13;28.63;;;12.85;;
22579;SDS011;11456;47.030;15.396;2023-11-21T02:48:39;22.77;;;12.25;;
22579;SDS011;11456;47.030;15.396;2023-11-21T02:51:06;24.10;;;12.20;;
22579;SDS011;11456;47.030;15.396;2023-11-21T02:53:33;20.17;;;11.65;;
22579;SDS011;11456;47.030;15.396;2023-11-21T02:56:00;26.52;;;12.85;;
22579;SDS011;11456;47.030;15.396;2023-11-21T02:58:27;19.05;;;10.98;;
22579;SDS011;11456;47.030;15.396;2023-11-21T03:00:54;23.98;;;12.35;;
22579;SDS011;11456;47.030;15.396;2023-11-21T03:03:20;21.25;;;12.02;;
22579;SDS011;11456;47.030;15.396;2023-11-21T03:05:47;22.63;;;11.70;;
22579;SDS011;11456;47.030;15.396;2023-11-21T03:08:14;22.13;;;11.13;;
22579;SDS011;11456;47.030;15.396;2023-11-21T03:10:41;24.90;;;11.40;;
22579;SDS011;11456;47.030;15.396;2023-11-21T03:13:07;22.55;;;11.75;;
22579;SDS011;11456;47.030;15.396;2023-11-21T03:15:34;22.30;;;12.05;;
22579;SDS011;11456;47.030;15.396;2023-11-21T03:18:02;23.17;;;11.38;;
22579;SDS011;11456;47.030;15.396;2023-11-21T03:20:31;22.63;;;10.45;;
22579;SDS011;11456;47.030;15.396;2023-11-21T03:22:58;20.65;;;10.55;;
22579;SDS011;11456;47.030;15.396;2023-11-21T03:25:26;23.02;;;11.07;;
22579;SDS011;11456;47.030;15.396;2023-11-21T03:27:53;19.90;;;10.48;;
22579;SDS011;11456;47.030;15.396;2023-11-21T03:30:20;18.88;;;10.45;;
22579;SDS011;11456;47.030;15.396;2023-11-21T03:32:47;22.10;;;10.18;;
22579;SDS011;11456;47.030;15.396;2023-11-21T03:35:14;16.17;;;9.48;;
22579;SDS011;11456;47.030;15.396;2023-11-21T03:37:41;19.88;;;9.73;;
22579;SDS011;11456;47.030;15.396;2023-11-21T03:40:09;16.98;;;9.57;;
22579;SDS011;11456;47.030;15.396;2023-11-21T03:42:36;18.35;;;10.05;;
22579;SDS011;11456;47.030;15.396;2023-11-21T03:45:03;18.88;;;10.00;;
22579;SDS011;11456;47.030;15.396;2023-11-21T03:47:31;19.33;;;9.98;;
22579;SDS011;11456;47.030;15.396;2023-11-21T03:49:57;20.95;;;9.57;;
22579;SDS011;11456;47.030;15.396;2023-11-21T03:52:24;17.02;;;9.15;;
22579;SDS011;11456;47.030;15.396;2023-11-21T03:54:51;15.73;;;9.73;;
22579;SDS011;11456;47.030;15.396;2023-11-21T03:57:18;18.70;;;9.20;;
22579;SDS011;11456;47.030;15.396;2023-11-21T03:59:44;18.58;;;9.70;;
22579;SDS011;11456;47.030;15.396;2023-11-21T04:02:11;18.98;;;9.55;;
22579;SDS011;11456;47.030;15.396;2023-11-21T04:04:38;20.52;;;9.38;;
22579;SDS011;11456;47.030;15.396;2023-11-21T04:07:05;19.77;;;9.48;;
22579;SDS011;11456;47.030;15.396;2023-11-21T04:09:32;17.65;;;8.98;;
22579;SDS011;11456;47.030;15.396;2023-11-21T04:11:59;12.88;;;8.18;;
22579;SDS011;11456;47.030;15.396;2023-11-21T04:14:25;14.43;;;8.73;;
22579;SDS011;11456;47.030;15.396;2023-11-21T04:16:53;17.30;;;9.50;;
22579;SDS011;11456;47.030;15.396;2023-11-21T04:19:20;16.23;;;9.63;;
22579;SDS011;11456;47.030;15.396;2023-11-21T04:21:47;15.00;;;9.13;;
22579;SDS011;11456;47.030;15.396;2023-11-21T04:24:14;16.25;;;9.40;;
22579;SDS011;11456;47.030;15.396;2023-11-21T04:26:41;13.85;;;7.78;;
22579;SDS011;11456;47.030;15.396;2023-11-21T04:29:08;17.27;;;8.38;;
22579;SDS011;11456;47.030;15.396;2023-11-21T04:31:34;15.60;;;9.18;;
22579;SDS011;11456;47.030;15.396;2023-11-21T04:34:01;16.13;;;9.40;;
22579;SDS011;11456;47.030;15.396;2023-11-21T04:36:30;17.23;;;8.93;;
22579;SDS011;11456;47.030;15.396;2023-11-21T04:39:01;17.35;;;9.18;;
22579;SDS011;11456;47.030;15.396;2023-11-21T04:41:27;15.23;;;8.88;;
22579;SDS011;11456;47.030;15.396;2023-11-21T04:43:54;18.60;;;9.35;;
22579;SDS011;11456;47.030;15.396;2023-11-21T04:46:21;15.98;;;8.77;;
22579;SDS011;11456;47.030;15.396;2023-11-21T04:48:48;15.50;;;8.90;;
22579;SDS011;11456;47.030;15.396;2023-11-21T04:51:14;15.27;;;8.50;;
22579;SDS011;11456;47.030;15.396;2023-11-21T04:53:41;18.42;;;10.80;;
22579;SDS011;11456;47.030;15.396;2023-11-21T04:56:08;22.27;;;11.73;;
22579;SDS011;11456;47.030;15.396;2023-11-21T04:58:34;31.35;;;16.42;;
22579;SDS011;11456;47.030;15.396;2023-11-21T05:01:02;25.50;;;14.25;;
22579;SDS011;11456;47.030;15.396;2023-11-21T05:03:33;26.05;;;13.10;;
22579;SDS011;11456;47.030;15.396;2023-11-21T05:06:01;21.85;;;11.23;;
22579;SDS011;11456;47.030;15.396;2023-11-21T05:08:28;24.83;;;12.63;;
22579;SDS011;11456;47.030;15.396;2023-11-21T05:10:55;20.02;;;10.27;;
22579;SDS011;11456;47.030;15.396;2023-11-21T05:13:22;21.10;;;11.30;;
22579;SDS011;11456;47.030;15.396;2023-11-21T05:15:54;18.63;;;10.30;;
22579;SDS011;11456;47.030;15.396;2023-11-21T05:18:22;17.80;;;9.40;;
22579;SDS011;11456;47.030;15.396;2023-11-21T05:20:49;15.25;;;9.32;;
22579;SDS011;11456;47.030;15.396;2023-11-21T05:23:16;23.40;;;10.52;;
22579;SDS011;11456;47.030;15.396;2023-11-21T05:25:43;18.85;;;9.57;;
22579;SDS011;11456;47.030;15.396;2023-11-21T05:28:10;19.27;;;8.10;;
22579;SDS011;11456;47.030;15.396;2023-11-21T05:30:36;17.33;;;8.45;;
22579;SDS011;11456;47.030;15.396;2023-11-21T05:33:05;15.90;;;8.13;;
22579;SDS011;11456;47.030;15.396;2023-11-21T05:35:32;15.88;;;8.55;;
22579;SDS011;11456;47.030;15.396;2023-11-21T05:37:58;25.45;;;9.52;;
22579;SDS011;11456;47.030;15.396;2023-11-21T05:40:25;26.50;;;9.55;;
22579;SDS011;11456;47.030;15.396;2023-11-21T05:42:55;23.77;;;10.30;;
22579;SDS011;11456;47.030;15.396;2023-11-21T05:45:22;19.60;;;9.52;;
22579;SDS011;11456;47.030;15.396;2023-11-21T05:47:49;27.92;;;9.60;;
22579;SDS011;11456;47.030;15.396;2023-11-21T05:50:17;20.02;;;9.57;;
22579;SDS011;11456;47.030;15.396;2023-11-21T05:52:45;18.55;;;9.60;;
22579;SDS011;11456;47.030;15.396;2023-11-21T05:55:13;25.70;;;9.43;;
22579;SDS011;11456;47.030;15.396;2023-11-21T05:57:40;18.08;;;9.13;;
22579;SDS011;11456;47.030;15.396;2023-11-21T06:00:09;19.02;;;8.90;;
22579;SDS011;11456;47.030;15.396;2023-11-21T06:02:38;15.93;;;8.93;;
22579;SDS011;11456;47.030;15.396;2023-11-21T06:05:06;21.83;;;10.10;;
22579;SDS011;11456;47.030;15.396;2023-11-21T06:07:33;23.35;;;10.23;;
22579;SDS011;11456;47.030;15.396;2023-11-21T06:10:02;19.20;;;10.43;;
22579;SDS011;11456;47.030;15.396;2023-11-21T06:12:32;24.35;;;10.07;;
22579;SDS011;11456;47.030;15.396;2023-11-21T06:15:02;24.25;;;10.32;;
22579;SDS011;11456;47.030;15.396;2023-11-21T06:17:31;23.75;;;11.73;;
22579;SDS011;11456;47.030;15.396;2023-11-21T06:19:58;32.25;;;13.48;;
22579;SDS011;11456;47.030;15.396;2023-11-21T06:22:25;23.35;;;13.32;;
22579;SDS011;11456;47.030;15.396;2023-11-21T06:24:52;19.15;;;10.52;;
22579;SDS011;11456;47.030;15.396;2023-11-21T06:27:19;24.33;;;10.05;;
22579;SDS011;11456;47.030;15.396;2023-11-21T06:29:45;23.45;;;10.35;;
22579;SDS011;11456;47.030;15.396;2023-11-21T06:32:13;19.98;;;10.48;;
22579;SDS011;11456;47.030;15.396;2023-11-21T06:34:41;21.45;;;11.57;;
22579;SDS011;11456;47.030;15.396;2023-11-21T06:37:07;20.85;;;10.77;;
22579;SDS011;11456;47.030;15.396;2023-11-21T06:39:34;19.02;;;10.98;;
22579;SDS011;11456;47.030;15.396;2023-11-21T06:42:02;20.73;;;11.07;;
22579;SDS011;11456;47.030;15.396;2023-11-21T06:44:28;27.92;;;11.85;;
22579;SDS011;11456;47.030;15.396;2023-11-21T06:46:55;22.02;;;11.95;;
22579;SDS011;11456;47.030;15.396;2023-11-21T06:49:22;21.40;;;11.60;;
22579;SDS011;11456;47.030;15.396;2023-11-21T06:51:49;22.58;;;11.63;;
22579;SDS011;11456;47.030;15.396;2023-11-21T06:54:16;21.83;;;11.95;;
22579;SDS011;11456;47.030;15.396;2023-11-21T06:56:42;19.10;;;11.13;;
22579;SDS011;11456;47.030;15.396;2023-11-21T06:59:09;20.58;;;10.70;;
22579;SDS011;11456;47.030;15.396;2023-11-21T07:01:37;24.90;;;11.38;;
22579;SDS011;11456;47.030;15.396;2023-11-21T07:04:05;19.63;;;10.70;;
22579;SDS011;11456;47.030;15.396;2023-11-21T07:06:33;17.17;;;9.65;;
22579;SDS011;11456;47.030;15.396;2023-11-21T07:08:59;24.25;;;10.48;;
22579;SDS011;11456;47.030;15.396;2023-11-21T07:11:27;25.42;;;10.80;;
22579;SDS011;11456;47.030;15.396;2023-11-21T07:13:54;29.80;;;13.45;;
22579;SDS011;11456;47.030;15.396;2023-11-21T07:16:21;27.38;;;13.00;;
22579;SDS011;11456;47.030;15.396;2023-11-21T07:18:48;38.80;;;13.27;;
22579;SDS011;11456;47.030;15.396;2023-11-21T07:21:15;25.90;;;13.23;;
22579;SDS011;11456;47.030;15.396;2023-11-21T07:23:43;28.40;;;13.60;;
22579;SDS011;11456;47.030;15.396;2023-11-21T07:26:09;33.17;;;16.50;;
22579;SDS011;11456;47.030;15.396;2023-11-21T07:28:37;39.08;;;18.92;;
22579;SDS011;11456;47.030;15.396;2023-11-21T07:31:03;44.45;;;21.10;;
22579;SDS011;11456;47.030;15.396;2023-11-21T07:33:30;47.17;;;22.00;;
22579;SDS011;11456;47.030;15.396;2023-11-21T07:35:57;40.95;;;20.88;;
22579;SDS011;11456;47.030;15.396;2023-11-21T07:38:24;49.88;;;22.85;;
22579;SDS011;11456;47.030;15.396;2023-11-21T07:40:50;42.20;;;20.98;;
22579;SDS011;11456;47.030;15.396;2023-11-21T07:43:17;44.78;;;22.65;;
22579;SDS011;11456;47.030;15.396;2023-11-21T07:45:45;44.20;;;21.65;;
22579;SDS011;11456;47.030;15.396;2023-11-21T07:48:12;41.22;;;20.08;;
22579;SDS011;11456;47.030;15.396;2023-11-21T07:50:39;37.72;;;17.40;;
22579;SDS011;11456;47.030;15.396;2023-11-21T07:53:06;29.17;;;15.45;;
22579;SDS011;11456;47.030;15.396;2023-11-21T07:55:33;25.35;;;13.25;;
22579;SDS011;11456;47.030;15.396;2023-11-21T07:57:59;27.27;;;10.93;;
22579;SDS011;11456;47.030;15.396;2023-11-21T08:00:26;19.73;;;9.82;;
22579;SDS011;11456;47.030;15.396;2023-11-21T08:02:56;16.13;;;8.70;;
22579;SDS011;11456;47.030;15.396;2023-11-21T08:05:23;18.55;;;7.75;;
22579;SDS011;11456;47.030;15.396;2023-11-21T08:08:02;20.48;;;10.77;;
22579;SDS011;11456;47.030;15.396;2023-11-21T08:10:29;18.60;;;9.60;;
22579;SDS011;11456;47.030;15.396;2023-11-21T08:12:56;16.10;;;8.82;;
22579;SDS011;11456;47.030;15.396;2023-11-21T08:15:23;25.98;;;9.27;;
22579;SDS011;11456;47.030;15.396;2023-11-21T08:17:50;22.35;;;10.77;;
22579;SDS011;11456;47.030;15.396;2023-11-21T08:20:17;19.52;;;9.57;;
22579;SDS011;11456;47.030;15.396;2023-11-21T08:22:44;21.42;;;10.75;;
22579;SDS011;11456;47.030;15.396;2023-11-21T08:25:11;24.60;;;10.85;;
22579;SDS011;11456;47.030;15.396;2023-11-21T08:27:38;20.52;;;10.45;;
22579;SDS011;11456;47.030;15.396;2023-11-21T08:30:05;16.42;;;9.85;;
22579;SDS011;11456;47.030;15.396;2023-11-21T08:32:33;18.90;;;10.30;;
22579;SDS011;11456;47.030;15.396;2023-11-21T08:35:00;18.63;;;9.43;;
22579;SDS011;11456;47.030;15.396;2023-11-21T08:37:28;14.00;;;8.60;;
22579;SDS011;11456;47.030;15.396;2023-11-21T08:39:57;17.77;;;8.23;;
22579;SDS011;11456;47.030;15.396;2023-11-21T08:42:28;16.77;;;8.48;;
22579;SDS011;11456;47.030;15.396;2023-11-21T08:44:56;16.23;;;8.35;;
22579;SDS011;11456;47.030;15.396;2023-11-21T08:47:25;16.95;;;8.55;;
22579;SDS011;11456;47.030;15.396;2023-11-21T08:49:52;21.23;;;9.25;;
22579;SDS011;11456;47.030;15.396;2023-11-21T08:52:19;19.13;;;8.07;;
22579;SDS011;11456;47.030;15.396;2023-11-21T08:54:50;18.55;;;8.23;;
22579;SDS011;11456;47.030;15.396;2023-11-21T08:59:49;15.38;;;7.95;;
22579;SDS011;11456;47.030;15.396;2023-11-21T09:04:49;18.50;;;9.02;;
22579;SDS011;11456;47.030;15.396;2023-11-21T09:07:19;19.40;;;9.80;;
22579;SDS011;11456;47.030;15.396;2023-11-21T09:09:49;22.50;;;10.95;;
22579;SDS011;11456;47.030;15.396;2023-11-21T09:12:17;27.40;;;11.15;;
22579;SDS011;11456;47.030;15.396;2023-11-21T09:14:45;20.80;;;11.18;;
22579;SDS011;11456;47.030;15.396;2023-11-21T09:17:12;20.48;;;10.85;;
22579;SDS011;11456;47.030;15.396;2023-11-21T09:19:40;16.70;;;8.30;;
22579;SDS011;11456;47.030;15.396;2023-11-21T09:22:07;16.35;;;8.57;;
22579;SDS011;11456;47.030;15.396;2023-11-21T09:24:34;16.20;;;9.07;;
22579;SDS011;11456;47.030;15.396;2023-11-21T09:27:03;20.83;;;9.95;;
22579;SDS011;11456;47.030;15.396;2023-11-21T09:29:31;23.02;;;9.98;;
22579;SDS011;11456;47.030;15.396;2023-11-21T09:31:58;25.48;;;10.98;;
22579;SDS011;11456;47.030;15.396;2023-11-21T09:34:27;28.48;;;12.50;;
22579;SDS011;11456;47.030;15.396;2023-11-21T09:36:54;24.85;;;11.93;;
22579;SDS011;11456;47.030;15.396;2023-11-21T09:39:21;20.80;;;11.85;;
22579;SDS011;11456;47.030;15.396;2023-11-21T09:41:51;21.98;;;10.70;;
22579;SDS011;11456;47.030;15.396;2023-11-21T09:44:32;21.70;;;10.20;;
22579;SDS011;11456;47.030;15.396;2023-11-21T09:47:01;17.48;;;9.73;;
22579;SDS011;11456;47.030;15.396;2023-11-21T09:49:28;18.90;;;9.65;;
22579;SDS011;11456;47.030;15.396;2023-11-21T09:52:01;21.27;;;10.45;;
22579;SDS011;11456;47.030;15.396;2023-11-21T09:54:30;23.75;;;11.80;;
22579;SDS011;11456;47.030;15.396;2023-11-21T09:57:01;25.55;;;11.32;;
22579;SDS011;11456;47.030;15.396;2023-11-21T09:59:30;23.13;;;11.10;;
22579;SDS011;11456;47.030;15.396;2023-11-21T10:01:58;26.52;;;11.23;;
22579;SDS011;11456;47.030;15.396;2023-11-21T10:04:25;20.13;;;11.13;;
22579;SDS011;11456;47.030;15.396;2023-11-21T10:06:53;19.33;;;9.60;;
22579;SDS011;11456;47.030;15.396;2023-11-21T10:09:20;16.55;;;8.50;;
22579;SDS011;11456;47.030;15.396;2023-11-21T10:11:49;18.95;;;10.15;;
22579;SDS011;11456;47.030;15.396;2023-11-21T10:14:18;21.00;;;11.15;;
22579;SDS011;11456;47.030;15.396;2023-11-21T10:16:51;24.27;;;10.68;;
22579;SDS011;11456;47.030;15.396;2023-11-21T10:19:19;22.10;;;7.57;;
22579;SDS011;11456;47.030;15.396;2023-11-21T10:21:47;14.25;;;7.45;;
22579;SDS011;11456;47.030;15.396;2023-11-21T10:24:14;13.88;;;7.75;;
22579;SDS011;11456;47.030;15.396;2023-11-21T10:26:41;19.55;;;8.90;;
22579;SDS011;11456;47.030;15.396;2023-11-21T10:29:18;16.67;;;8.75;;
22579;SDS011;11456;47.030;15.396;2023-11-21T10:31:50;21.23;;;10.23;;
22579;SDS011;11456;47.030;15.396;2023-11-21T10:34:19;15.98;;;8.40;;
22579;SDS011;11456;47.030;15.396;2023-11-21T10:36:46;16.15;;;8.00;;
22579;SDS011;11456;47.030;15.396;2023-11-21T10:39:16;16.05;;;8.80;;
22579;SDS011;11456;47.030;15.396;2023-11-21T10:41:44;17.65;;;7.95;;
22579;SDS011;11456;47.030;15.396;2023-11-21T10:44:15;16.70;;;8.30;;
22579;SDS011;11456;47.030;15.396;2023-11-21T10:46:53;20.88;;;8.57;;
22579;SDS011;11456;47.030;15.396;2023-11-21T10:49:26;15.88;;;7.95;;
22579;SDS011;11456;47.030;15.396;2023-11-21T10:51:54;16.83;;;8.88;;
22579;SDS011;11456;47.030;15.396;2023-11-21T10:54:22;12.68;;;7.72;;
22579;SDS011;11456;47.030;15.396;2023-11-21T10:56:58;14.55;;;8.02;;
22579;SDS011;11456;47.030;15.396;2023-11-21T10:59:28;13.02;;;7.70;;
22579;SDS011;11456;47.030;15.396;2023-11-21T11:01:57;18.40;;;7.85;;
22579;SDS011;11456;47.030;15.396;2023-11-21T11:04:25;17.13;;;7.90;;
22579;SDS011;11456;47.030;15.396;2023-11-21T11:06:57;19.13;;;7.95;;
22579;SDS011;11456;47.030;15.396;2023-11-21T11:09:30;20.30;;;8.82;;
22579;SDS011;11456;47.030;15.396;2023-11-21T11:12:01;17.88;;;8.65;;
22579;SDS011;11456;47.030;15.396;2023-11-21T11:14:28;16.15;;;8.82;;
22579;SDS011;11456;47.030;15.396;2023-11-21T11:16:55;15.10;;;8.32;;
22579;SDS011;11456;47.030;15.396;2023-11-21T11:19:23;21.58;;;11.18;;
22579;SDS011;11456;47.030;15.396;2023-11-21T11:27:19;44.83;;;19.80;;
22579;SDS011;11456;47.030;15.396;2023-11-21T11:32:38;20.20;;;8.50;;
22579;SDS011;11456;47.030;15.396;2023-11-21T11:35:17;18.00;;;9.57;;
22579;SDS011;11456;47.030;15.396;2023-11-21T11:37:50;15.20;;;6.90;;
22579;SDS011;11456;47.030;15.396;2023-11-21T11:40:17;17.40;;;8.10;;
22579;SDS011;11456;47.030;15.396;2023-11-21T11:42:57;20.65;;;10.27;;
22579;SDS011;11456;47.030;15.396;2023-11-21T11:45:25;19.50;;;9.60;;
22579;SDS011;11456;47.030;15.396;2023-11-21T11:48:00;14.82;;;7.55;;
22579;SDS011;11456;47.030;15.396;2023-11-21T11:50:27;11.32;;;6.82;;
22579;SDS011;11456;47.030;15.396;2023-11-21T11:52:55;11.60;;;6.65;;
22579;SDS011;11456;47.030;15.396;2023-11-21T11:55:24;15.07;;;7.03;;
22579;SDS011;11456;47.030;15.396;2023-11-21T11:57:52;12.45;;;7.43;;
22579;SDS011;11456;47.030;15.396;2023-11-21T12:00:33;10.57;;;6.07;;
22579;SDS011;11456;47.030;15.396;2023-11-21T12:03:04;9.77;;;6.22;;
22579;SDS011;11456;47.030;15.396;2023-11-21T12:05:34;10.52;;;6.35;;
22579;SDS011;11456;47.030;15.396;2023-11-21T12:08:05;13.85;;;7.35;;
22579;SDS011;11456;47.030;15.396;2023-11-21T12:10:37;17.83;;;6.28;;
22579;SDS011;11456;47.030;15.396;2023-11-21T12:13:06;16.98;;;6.82;;
22579;SDS011;11456;47.030;15.396;2023-11-21T12:15:34;9.10;;;6.10;;
22579;SDS011;11456;47.030;15.396;2023-11-21T12:18:03;15.75;;;7.18;;
22579;SDS011;11456;47.030;15.396;2023-11-21T12:20:30;11.88;;;6.72;;
22579;SDS011;11456;47.030;15.396;2023-11-21T12:22:58;15.57;;;7.45;;
22579;SDS011;11456;47.030;15.396;2023-11-21T12:25:27;16.63;;;7.05;;
22579;SDS011;11456;47.030;15.396;2023-11-21T12:28:09;14.50;;;7.55;;
22579;SDS011;11456;47.030;15.396;2023-11-21T12:30:35;15.60;;;7.50;;
22579;SDS011;11456;47.030;15.396;2023-11-21T12:33:04;17.70;;;7.53;;
22579;SDS011;11456;47.030;15.396;2023-11-21T12:35:33;13.77;;;7.68;;
22579;SDS011;11456;47.030;15.396;2023-11-21T12:38:02;11.65;;;6.97;;
22579;SDS011;11456;47.030;15.396;2023-11-21T12:40:30;14.73;;;7.68;;
22579;SDS011;11456;47.030;15.396;2023-11-21T12:42:58;18.02;;;7.63;;
22579;SDS011;11456;47.030;15.396;2023-11-21T12:45:28;20.20;;;7.47;;
22579;SDS011;11456;47.030;15.396;2023-11-21T12:48:05;14.00;;;7.10;;
22579;SDS011;11456;47.030;15.396;2023-11-21T12:50:38;17.23;;;7.93;;
22579;SDS011;11456;47.030;15.396;2023-11-21T12:53:09;13.57;;;7.95;;
22579;SDS011;11456;47.030;15.396;2023-11-21T12:55:38;14.73;;;7.25;;
22579;SDS011;11456;47.030;15.396;2023-11-21T12:58:06;13.52;;;7.60;;
22579;SDS011;11456;47.030;15.396;2023-11-21T13:00:42;13.80;;;8.00;;
22579;SDS011;11456;47.030;15.396;2023-11-21T13:03:12;16.33;;;7.82;;
22579;SDS011;11456;47.030;15.396;2023-11-21T13:05:46;16.98;;;7.82;;
22579;SDS011;11456;47.030;15.396;2023-11-21T13:08:24;16.33;;;8.00;;
22579;SDS011;11456;47.030;15.396;2023-11-21T13:10:52;20.92;;;9.00;;
22579;SDS011;11456;47.030;15.396;2023-11-21T13:13:23;14.75;;;7.72;;
22579;SDS011;11456;47.030;15.396;2023-11-21T13:15:52;16.27;;;7.85;;
22579;SDS011;11456;47.030;15.396;2023-11-21T13:18:23;13.73;;;7.27;;
22579;SDS011;11456;47.030;15.396;2023-11-21T13:20:53;16.65;;;8.10;;
22579;SDS011;11456;47.030;15.396;2023-11-21T13:23:24;13.13;;;7.72;;
22579;SDS011;11456;47.030;15.396;2023-11-21T13:25:53;16.13;;;7.25;;
22579;SDS011;11456;47.030;15.396;2023-11-21T13:28:30;14.13;;;7.90;;
22579;SDS011;11456;47.030;15.396;2023-11-21T13:31:00;19.65;;;7.60;;
22579;SDS011;11456;47.030;15.396;2023-11-21T13:33:37;17.77;;;9.00;;
22579;SDS011;11456;47.030;15.396;2023-11-21T13:36:09;19.98;;;9.48;;
22579;SDS011;11456;47.030;15.396;2023-11-21T13:38:37;14.82;;;8.70;;
22579;SDS011;11456;47.030;15.396;2023-11-21T13:41:09;18.90;;;9.07;;
22579;SDS011;11456;47.030;15.396;2023-11-21T13:43:36;16.98;;;8.43;;
22579;SDS011;11456;47.030;15.396;2023-11-21T13:46:04;17.33;;;8.20;;
22579;SDS011;11456;47.030;15.396;2023-11-21T13:48:40;17.90;;;8.77;;
22579;SDS011;11456;47.030;15.396;2023-11-21T13:51:17;20.85;;;8.80;;
22579;SDS011;11456;47.030;15.396;2023-11-21T13:53:44;16.00;;;8.60;;
22579;SDS011;11456;47.030;15.396;2023-11-21T13:56:17;23.48;;;9.48;;
22579;SDS011;11456;47.030;15.396;2023-11-21T13:58:48;15.80;;;8.97;;
22579;SDS011;11456;47.030;15.396;2023-11-21T14:01:19;17.20;;;9.10;;
22579;SDS011;11456;47.030;15.396;2023-11-21T14:04:14;18.02;;;8.73;;
22579;SDS011;11456;47.030;15.396;2023-11-21T14:06:45;19.70;;;9.65;;
22579;SDS011;11456;47.030;15.396;2023-11-21T14:11:54;22.45;;;9.15;;
22579;SDS011;11456;47.030;15.396;2023-11-21T14:14:24;19.73;;;9.82;;
22579;SDS011;11456;47.030;15.396;2023-11-21T14:16:52;17.35;;;9.30;;
22579;SDS011;11456;47.030;15.396;2023-11-21T14:19:19;21.75;;;9.48;;
22579;SDS011;11456;47.030;15.396;2023-11-21T14:21:46;20.13;;;8.85;;
22579;SDS011;11456;47.030;15.396;2023-11-21T14:24:15;19.58;;;9.30;;
22579;SDS011;11456;47.030;15.396;2023-11-21T14:26:45;18.23;;;9.55;;
22579;SDS011;11456;47.030;15.396;2023-11-21T14:29:13;17.40;;;9.38;;
22579;SDS011;11456;47.030;15.396;2023-11-21T14:31:46;18.45;;;9.48;;
22579;SDS011;11456;47.030;15.396;2023-11-21T14:34:14;17.92;;;9.88;;
22579;SDS011;11456;47.030;15.396;2023-11-21T14:36:45;22.27;;;10.15;;
22579;SDS011;11456;47.030;15.396;2023-11-21T14:39:12;22.50;;;10.70;;